Chesnee, South Carolina
Current Conditions -  °F | °C
As of 8:15 PM on Monday 20 Oct 2014 (Local Time) from KEHO Reporting Station
Clear Clear  
Wind Chill: 61°   Ceiling: Unl
Heat Index: 61°   Visibility: 10mi
Dew Point: 50°   Wind: 3mph
Humidity: 68%   Direction: 170°S
Pressure: 30"   Gusts: NA
Location:  35.15°N, 81.86°W
Report Text: KEHO 210015Z AUTO 17003KT 10SM CLR 16/10 A3000 RMK AO2 T01610101
Loading
Personal Weather Stations






























Interactive Weather Map
Tropical Storm Tracking
New forecast layout! Learn more

10-Day Weather Forecast

Advertisements
Track Severe Weather on mobile